createdAt,value
2022-11-02T00:02:16.632Z,101413.00
2022-11-02T00:04:43.408Z,101402.00
2022-11-02T00:07:10.754Z,101411.00
2022-11-02T00:09:37.480Z,101404.00
2022-11-02T00:12:04.572Z,101404.00
2022-11-02T00:14:31.300Z,101403.00
2022-11-02T00:16:58.024Z,101409.00
2022-11-02T00:19:24.749Z,101405.00
2022-11-02T00:21:51.499Z,101402.00
2022-11-02T00:24:18.276Z,101399.00
2022-11-02T00:26:45.038Z,101411.00
2022-11-02T00:29:11.795Z,101402.00
2022-11-02T00:31:38.572Z,101405.00
2022-11-02T00:34:05.302Z,101404.00
2022-11-02T00:36:32.071Z,101402.00
2022-11-02T00:38:58.788Z,101405.00
2022-11-02T00:41:25.588Z,101403.00
2022-11-02T00:43:52.336Z,101409.00
2022-11-02T00:46:20.183Z,101413.00
2022-11-02T00:48:46.909Z,101403.00
2022-11-02T00:51:13.655Z,101401.00
2022-11-02T00:53:40.406Z,101414.00
2022-11-02T00:56:07.868Z,101413.00
2022-11-02T00:58:34.817Z,101411.00
2022-11-02T01:01:06.452Z,101412.00
2022-11-02T01:03:33.464Z,101416.00
2022-11-02T01:06:11.062Z,101417.00
2022-11-02T01:08:38.203Z,101409.00
2022-11-02T01:11:18.754Z,101413.00
2022-11-02T01:13:46.071Z,101405.00
2022-11-02T01:16:14.792Z,101404.00
2022-11-02T01:18:41.833Z,101399.00
2022-11-02T01:21:09.045Z,101409.00
2022-11-02T01:23:37.694Z,101408.00
2022-11-02T01:26:08.185Z,101415.00
2022-11-02T01:28:35.873Z,101413.00
2022-11-02T01:31:03.046Z,101413.00
2022-11-02T01:33:29.814Z,101414.00
2022-11-02T01:35:56.927Z,101401.00
2022-11-02T01:38:25.351Z,101402.00
2022-11-02T01:40:52.324Z,101402.00
2022-11-02T01:43:26.504Z,101407.00
2022-11-02T01:46:14.985Z,101402.00
2022-11-02T01:49:00.345Z,101391.00
2022-11-02T01:52:06.271Z,101392.00
2022-11-02T01:54:40.315Z,101389.00
2022-11-02T01:57:12.573Z,101385.00
2022-11-02T02:00:02.304Z,101388.00
2022-11-02T02:02:29.672Z,101384.00
2022-11-02T02:05:08.288Z,101389.00
2022-11-02T02:07:39.509Z,101375.00
2022-11-02T02:10:08.029Z,101377.00
2022-11-02T02:12:39.152Z,101383.00
2022-11-02T02:15:06.780Z,101386.00
2022-11-02T02:18:01.582Z,101383.00
2022-11-02T02:21:16.498Z,101380.00
2022-11-02T02:24:20.876Z,101384.00
2022-11-02T02:27:13.215Z,101381.00
2022-11-02T02:29:59.224Z,101389.00
2022-11-02T02:32:43.952Z,101382.00
2022-11-02T02:35:24.864Z,101381.00
2022-11-02T02:38:01.892Z,101368.00
2022-11-02T02:40:38.529Z,101365.00
2022-11-02T02:43:40.137Z,101368.00
2022-11-02T02:46:23.008Z,101369.00
2022-11-02T02:48:52.800Z,101374.00
2022-11-02T02:51:27.768Z,101369.00
2022-11-02T02:54:10.291Z,101371.00
2022-11-02T02:56:43.331Z,101369.00
2022-11-02T02:59:29.622Z,101368.00
2022-11-02T03:01:58.525Z,101367.00
2022-11-02T03:04:25.768Z,101371.00
2022-11-02T03:06:57.729Z,101364.00
2022-11-02T03:09:47.308Z,101368.00
2022-11-02T03:12:47.697Z,101364.00
2022-11-02T03:15:28.378Z,101365.00
2022-11-02T03:18:14.695Z,101358.00
2022-11-02T03:21:21.343Z,101340.00
2022-11-02T03:24:09.467Z,101346.00
2022-11-02T03:27:05.417Z,101360.00
2022-11-02T03:29:53.893Z,101358.00
2022-11-02T03:32:41.465Z,101364.00
2022-11-02T03:35:35.106Z,101375.00
2022-11-02T03:38:13.003Z,101364.00
2022-11-02T03:40:46.523Z,101360.00
2022-11-02T03:43:15.358Z,101362.00
2022-11-02T03:45:52.765Z,101357.00
2022-11-02T03:48:23.260Z,101366.00
2022-11-02T03:50:52.548Z,101369.00
2022-11-02T03:53:43.833Z,101374.00
2022-11-02T03:56:32.679Z,101365.00
2022-11-02T03:58:59.468Z,101367.00
2022-11-02T04:01:29.205Z,101372.00
2022-11-02T04:03:56.310Z,101366.00
2022-11-02T04:06:25.440Z,101362.00
2022-11-02T04:08:52.340Z,101356.00
2022-11-02T04:11:37.665Z,101362.00
2022-11-02T04:14:22.999Z,101351.00
2022-11-02T04:16:50.263Z,101368.00
2022-11-02T04:19:28.746Z,101364.00
2022-11-02T04:22:15.360Z,101358.00
2022-11-02T04:25:00.947Z,101350.00
2022-11-02T04:27:27.740Z,101360.00
2022-11-02T04:29:54.531Z,101352.00
2022-11-02T04:32:39.882Z,101356.00
2022-11-02T04:35:08.248Z,101363.00
2022-11-02T04:38:01.450Z,101360.00
2022-11-02T04:40:28.666Z,101365.00
2022-11-02T04:42:55.949Z,101346.00
2022-11-02T04:45:22.890Z,101364.00
2022-11-02T04:47:49.711Z,101361.00
2022-11-02T04:50:16.784Z,101364.00
2022-11-02T04:52:43.578Z,101366.00
2022-11-02T04:55:10.423Z,101367.00
2022-11-02T04:57:37.218Z,101366.00
2022-11-02T05:00:07.293Z,101371.00
2022-11-02T05:02:34.375Z,101361.00
2022-11-02T05:05:01.281Z,101360.00
2022-11-02T05:07:28.042Z,101368.00
2022-11-02T05:09:54.745Z,101372.00
2022-11-02T05:12:25.264Z,101364.00
2022-11-02T05:14:54.941Z,101360.00
2022-11-02T05:17:21.884Z,101365.00
2022-11-02T05:19:48.657Z,101365.00
2022-11-02T05:22:15.490Z,101355.00
2022-11-02T05:24:42.226Z,101373.00
2022-11-02T05:27:10.606Z,101359.00
2022-11-02T05:29:37.435Z,101356.00
2022-11-02T05:32:04.613Z,101363.00
2022-11-02T05:34:31.396Z,101365.00
2022-11-02T05:36:58.757Z,101369.00
2022-11-02T05:39:25.535Z,101363.00
2022-11-02T05:41:52.301Z,101364.00
2022-11-02T05:44:19.086Z,101356.00
2022-11-02T05:46:45.816Z,101366.00
2022-11-02T05:49:12.528Z,101369.00
2022-11-02T05:51:39.292Z,101374.00
2022-11-02T05:54:06.071Z,101367.00
2022-11-02T05:56:32.797Z,101366.00
2022-11-02T05:58:59.530Z,101350.00
2022-11-02T06:01:26.384Z,101363.00
2022-11-02T06:03:53.901Z,101357.00
2022-11-02T06:06:21.776Z,101355.00
2022-11-02T06:08:48.611Z,101372.00
2022-11-02T06:11:15.930Z,101373.00
2022-11-02T06:13:43.319Z,101369.00
2022-11-02T06:16:12.459Z,101368.00
2022-11-02T06:18:39.756Z,101374.00
2022-11-02T06:21:07.548Z,101375.00
2022-11-02T06:23:35.307Z,101371.00
2022-11-02T06:26:03.365Z,101362.00
2022-11-02T06:28:31.720Z,101362.00
2022-11-02T06:30:58.850Z,101366.00
2022-11-02T06:33:26.144Z,101366.00
2022-11-02T06:35:55.074Z,101372.00
2022-11-02T06:38:22.385Z,101377.00
2022-11-02T06:41:02.056Z,101376.00
2022-11-02T06:43:29.041Z,101383.00
2022-11-02T06:45:59.253Z,101379.00
2022-11-02T06:48:34.325Z,101385.00
2022-11-02T06:51:03.358Z,101393.00
2022-11-02T06:53:30.639Z,101401.00
2022-11-02T06:55:59.435Z,101401.00
2022-11-02T06:58:27.067Z,101399.00
2022-11-02T07:01:00.593Z,101392.00
2022-11-02T07:03:28.730Z,101389.00
2022-11-02T07:05:55.877Z,101389.00
2022-11-02T07:08:23.297Z,101401.00
2022-11-02T07:10:50.576Z,101401.00
2022-11-02T07:13:17.742Z,101399.00
2022-11-02T07:15:44.560Z,101398.00
2022-11-02T07:18:12.530Z,101395.00
2022-11-02T07:20:39.621Z,101391.00
2022-11-02T07:23:06.733Z,101406.00
2022-11-02T07:25:34.154Z,101402.00
2022-11-02T07:28:02.587Z,101384.00
2022-11-02T07:30:32.647Z,101397.00
2022-11-02T07:32:59.581Z,101393.00
2022-11-02T07:35:26.728Z,101392.00
2022-11-02T07:38:02.635Z,101397.00
2022-11-02T07:40:31.356Z,101410.00
2022-11-02T07:42:59.075Z,101402.00
2022-11-02T07:45:26.944Z,101396.00
2022-11-02T07:47:53.689Z,101406.00
2022-11-02T07:50:24.291Z,101408.00
2022-11-02T07:52:54.580Z,101400.00
2022-11-02T07:55:25.541Z,101405.00
2022-11-02T07:57:58.473Z,101412.00
2022-11-02T08:00:27.907Z,101406.00
2022-11-02T08:02:59.597Z,101409.00
2022-11-02T08:05:29.063Z,101407.00
2022-11-02T08:08:00.637Z,101405.00
2022-11-02T08:10:32.837Z,101414.00
2022-11-02T08:13:04.770Z,101403.00
2022-11-02T08:15:31.883Z,101400.00
2022-11-02T08:18:20.880Z,101407.00
2022-11-02T08:20:48.782Z,101410.00
2022-11-02T08:23:18.892Z,101401.00
2022-11-02T08:25:48.204Z,101388.00
2022-11-02T08:28:23.984Z,101407.00
2022-11-02T08:30:50.989Z,101415.00
2022-11-02T08:33:20.044Z,101425.00
2022-11-02T08:35:48.341Z,101422.00
2022-11-02T08:38:16.207Z,101422.00
2022-11-02T08:40:43.410Z,101424.00
2022-11-02T08:43:13.855Z,101420.00
2022-11-02T08:48:32.075Z,101420.00
2022-11-02T08:50:59.255Z,101421.00
2022-11-02T08:53:26.321Z,101404.00
2022-11-02T08:55:53.226Z,101406.00
2022-11-02T08:58:19.975Z,101419.00
2022-11-02T09:00:46.709Z,101413.00
2022-11-02T09:03:15.559Z,101417.00
2022-11-02T09:05:45.972Z,101413.00
2022-11-02T09:08:19.910Z,101411.00
2022-11-02T09:10:50.959Z,101409.00
2022-11-02T09:13:21.971Z,101418.00
2022-11-02T09:15:54.235Z,101421.00
2022-11-02T09:18:21.980Z,101419.00
2022-11-02T09:20:49.353Z,101418.00
2022-11-02T09:23:17.414Z,101430.00
2022-11-02T09:25:45.093Z,101425.00
2022-11-02T09:28:13.190Z,101420.00
2022-11-02T09:30:39.974Z,101429.00
2022-11-02T09:33:08.120Z,101426.00
2022-11-02T09:35:39.204Z,101422.00
2022-11-02T09:38:06.704Z,101422.00
2022-11-02T09:40:44.910Z,101415.00
2022-11-02T09:43:56.840Z,101415.00
2022-11-02T09:46:32.427Z,101430.00
2022-11-02T09:49:12.763Z,101429.00
2022-11-02T09:51:47.361Z,101434.00
2022-11-02T09:54:36.805Z,101429.00
2022-11-02T09:57:14.127Z,101426.00
2022-11-02T09:59:42.063Z,101432.00
2022-11-02T10:02:45.187Z,101429.00
2022-11-02T10:05:43.150Z,101428.00
2022-11-02T10:08:27.505Z,101422.00
2022-11-02T10:11:50.936Z,101428.00
2022-11-02T10:14:31.234Z,101432.00
2022-11-02T10:17:18.733Z,101437.00
2022-11-02T10:19:55.423Z,101430.00
2022-11-02T10:22:32.298Z,101432.00
2022-11-02T10:25:05.651Z,101434.00
2022-11-02T10:27:38.895Z,101436.00
2022-11-02T10:30:19.374Z,101424.00
2022-11-02T10:32:51.217Z,101428.00
2022-11-02T10:35:57.228Z,101435.00
2022-11-02T10:38:51.598Z,101433.00
2022-11-02T10:41:41.957Z,101435.00
2022-11-02T10:44:28.516Z,101428.00
2022-11-02T10:47:21.652Z,101431.00
2022-11-02T10:50:16.255Z,101430.00
2022-11-02T10:52:46.358Z,101434.00
2022-11-02T10:55:40.662Z,101438.00
2022-11-02T10:58:15.993Z,101432.00
2022-11-02T11:00:43.335Z,101441.00
2022-11-02T11:03:15.106Z,101439.00
2022-11-02T11:05:50.929Z,101448.00
2022-11-02T11:08:43.723Z,101449.00
2022-11-02T11:11:25.249Z,101451.00
2022-11-02T11:16:57.050Z,101458.00
2022-11-02T11:19:41.491Z,101453.00
2022-11-02T11:22:29.743Z,101473.00
2022-11-02T11:25:28.018Z,101458.00
2022-11-02T11:27:58.341Z,101474.00
2022-11-02T11:33:20.798Z,101460.00
2022-11-02T11:35:50.674Z,101468.00
2022-11-02T11:38:26.754Z,101465.00
2022-11-02T11:40:59.664Z,101464.00
2022-11-02T11:43:38.016Z,101467.00
2022-11-02T11:46:08.745Z,101463.00
2022-11-02T11:48:59.637Z,101467.00
2022-11-02T11:51:42.395Z,101461.00
2022-11-02T11:54:28.840Z,101460.00
2022-11-02T11:57:22.792Z,101463.00
2022-11-02T11:59:55.677Z,101463.00
2022-11-02T12:02:28.836Z,101464.00
2022-11-02T12:05:15.223Z,101462.00
2022-11-02T12:08:18.782Z,101469.00
2022-11-02T12:10:58.334Z,101459.00
2022-11-02T12:14:04.276Z,101455.00
2022-11-02T12:17:02.443Z,101460.00
2022-11-02T12:20:23.332Z,101467.00
2022-11-02T12:23:24.912Z,101462.00
2022-11-02T12:26:29.812Z,101455.00
2022-11-02T12:29:32.401Z,101458.00
2022-11-02T12:32:35.765Z,101447.00
2022-11-02T12:35:31.206Z,101447.00
2022-11-02T12:38:18.924Z,101449.00
2022-11-02T12:41:28.078Z,101447.00
2022-11-02T12:44:14.457Z,101456.00
2022-11-02T12:47:19.462Z,101452.00
2022-11-02T12:50:14.164Z,101450.00
2022-11-02T12:53:07.735Z,101441.00
2022-11-02T12:55:43.491Z,101459.00
2022-11-02T12:58:22.097Z,101448.00
2022-11-02T13:00:57.112Z,101454.00
2022-11-02T13:03:54.680Z,101462.00
2022-11-02T13:06:34.802Z,101461.00
2022-11-02T13:09:22.125Z,101451.00
2022-11-02T13:12:02.231Z,101460.00
2022-11-02T13:14:40.794Z,101466.00
2022-11-02T13:17:35.455Z,101459.00
2022-11-02T13:20:35.278Z,101464.00
2022-11-02T13:23:18.595Z,101465.00
2022-11-02T13:25:54.133Z,101468.00
2022-11-02T13:28:44.678Z,101471.00
2022-11-02T13:31:36.027Z,101479.00
2022-11-02T13:34:19.700Z,101476.00
2022-11-02T13:36:47.020Z,101467.00
2022-11-02T13:39:31.917Z,101477.00
2022-11-02T13:42:23.935Z,101480.00
2022-11-02T13:45:20.786Z,101480.00
2022-11-02T13:48:25.879Z,101480.00
2022-11-02T13:50:58.994Z,101470.00
2022-11-02T13:53:56.188Z,101472.00
2022-11-02T13:56:27.225Z,101479.00
2022-11-02T13:59:04.168Z,101473.00
2022-11-02T14:01:36.519Z,101482.00
2022-11-02T14:04:09.249Z,101477.00
2022-11-02T14:06:56.140Z,101482.00
2022-11-02T14:09:49.203Z,101479.00
2022-11-02T14:12:21.601Z,101484.00
2022-11-02T14:15:12.958Z,101491.00
2022-11-02T14:17:55.084Z,101483.00
2022-11-02T14:20:46.696Z,101481.00
2022-11-02T14:23:18.296Z,101484.00
2022-11-02T14:25:54.082Z,101489.00
2022-11-02T14:28:25.811Z,101489.00
2022-11-02T14:31:28.520Z,101495.00
2022-11-02T14:34:32.004Z,101496.00
2022-11-02T14:37:27.563Z,101493.00
2022-11-02T14:40:25.823Z,101501.00
2022-11-02T14:43:38.697Z,101514.00
2022-11-02T14:46:56.655Z,101515.00
2022-11-02T14:49:31.448Z,101524.00
2022-11-02T14:52:06.713Z,101517.00
2022-11-02T14:54:57.097Z,101523.00
2022-11-02T14:57:29.226Z,101529.00
2022-11-02T15:00:01.883Z,101529.00
2022-11-02T15:02:42.964Z,101528.00
2022-11-02T15:05:30.931Z,101533.00
2022-11-02T15:08:08.882Z,101530.00
2022-11-02T15:10:42.876Z,101545.00
2022-11-02T15:13:21.568Z,101538.00
2022-11-02T15:15:51.360Z,101552.00
2022-11-02T15:18:31.289Z,101552.00
2022-11-02T15:21:13.041Z,101552.00
2022-11-02T15:23:57.356Z,101546.00
2022-11-02T15:26:42.645Z,101547.00
2022-11-02T15:29:40.114Z,101556.00
2022-11-02T15:32:21.215Z,101564.00
2022-11-02T15:34:53.599Z,101557.00
2022-11-02T15:37:25.305Z,101565.00
2022-11-02T15:40:03.184Z,101564.00
2022-11-02T15:42:36.806Z,101569.00
2022-11-02T15:45:34.064Z,101561.00
2022-11-02T15:48:38.992Z,101578.00
2022-11-02T15:51:29.754Z,101584.00
2022-11-02T15:54:29.075Z,101585.00
2022-11-02T15:57:34.991Z,101579.00
2022-11-02T16:00:14.695Z,101570.00
2022-11-02T16:02:49.842Z,101576.00
2022-11-02T16:05:27.120Z,101583.00
2022-11-02T16:08:10.928Z,101585.00
2022-11-02T16:10:38.215Z,101589.00
2022-11-02T16:13:07.957Z,101598.00
2022-11-02T16:15:34.693Z,101588.00
2022-11-02T16:18:01.598Z,101591.00
2022-11-02T16:20:37.196Z,101586.00
2022-11-02T16:23:07.489Z,101589.00
2022-11-02T16:25:47.345Z,101602.00
2022-11-02T16:28:25.599Z,101603.00
2022-11-02T16:31:18.085Z,101618.00
2022-11-02T16:33:55.454Z,101612.00
2022-11-02T16:36:38.105Z,101608.00
2022-11-02T16:39:27.326Z,101600.00
2022-11-02T16:41:58.075Z,101592.00
2022-11-02T16:44:31.535Z,101614.00
2022-11-02T16:47:18.298Z,101624.00
2022-11-02T16:49:50.949Z,101620.00
2022-11-02T16:52:21.691Z,101622.00
2022-11-02T16:54:48.765Z,101624.00
2022-11-02T16:57:21.015Z,101626.00
2022-11-02T16:59:58.054Z,101625.00
2022-11-02T17:02:43.595Z,101632.00
2022-11-02T17:05:23.508Z,101634.00
2022-11-02T17:08:18.918Z,101641.00
2022-11-02T17:10:45.708Z,101642.00
2022-11-02T17:13:21.760Z,101633.00
2022-11-02T17:15:51.783Z,101643.00
2022-11-02T17:18:21.579Z,101650.00
2022-11-02T17:21:28.530Z,101651.00
2022-11-02T17:23:58.038Z,101658.00
2022-11-02T17:26:31.004Z,101652.00
2022-11-02T17:29:24.559Z,101645.00
2022-11-02T17:31:57.300Z,101655.00
2022-11-02T17:34:24.565Z,101659.00
2022-11-02T17:36:52.131Z,101653.00
2022-11-02T17:39:20.862Z,101668.00
2022-11-02T17:42:13.583Z,101668.00
2022-11-02T17:44:41.469Z,101662.00
2022-11-02T17:47:18.676Z,101652.00
2022-11-02T17:49:45.692Z,101663.00
2022-11-02T17:52:16.314Z,101669.00
2022-11-02T17:54:43.249Z,101673.00
2022-11-02T17:57:15.047Z,101675.00
2022-11-02T17:59:41.858Z,101672.00
2022-11-02T18:02:14.544Z,101673.00
2022-11-02T18:07:13.860Z,101681.00
2022-11-02T18:09:40.598Z,101685.00
2022-11-02T18:12:13.289Z,101686.00
2022-11-02T18:14:40.515Z,101688.00
2022-11-02T18:17:08.621Z,101679.00
2022-11-02T18:19:35.417Z,101684.00
2022-11-02T18:22:02.569Z,101694.00
2022-11-02T18:24:29.334Z,101695.00
2022-11-02T18:26:56.149Z,101699.00
2022-11-02T18:29:23.001Z,101693.00
2022-11-02T18:31:50.426Z,101689.00
2022-11-02T18:34:17.183Z,101698.00
2022-11-02T18:36:44.237Z,101685.00
2022-11-02T18:39:11.007Z,101688.00
2022-11-02T18:41:38.476Z,101700.00
2022-11-02T18:44:11.912Z,101693.00
2022-11-02T18:46:41.853Z,101694.00
2022-11-02T18:49:08.547Z,101688.00
2022-11-02T18:51:35.310Z,101693.00
2022-11-02T18:54:05.276Z,101688.00
2022-11-02T18:56:33.052Z,101688.00
2022-11-02T18:58:59.795Z,101696.00
2022-11-02T19:01:27.328Z,101706.00
2022-11-02T19:03:59.966Z,101707.00
2022-11-02T19:06:48.653Z,101704.00
2022-11-02T19:09:20.161Z,101704.00
2022-11-02T19:11:51.387Z,101701.00
2022-11-02T19:14:19.556Z,101696.00
2022-11-02T19:16:46.411Z,101693.00
2022-11-02T19:19:13.449Z,101691.00
2022-11-02T19:21:40.318Z,101686.00
2022-11-02T19:24:08.695Z,101690.00
2022-11-02T19:26:35.819Z,101694.00
2022-11-02T19:29:06.268Z,101695.00
2022-11-02T19:31:35.083Z,101696.00
2022-11-02T19:34:02.456Z,101694.00
2022-11-02T19:36:29.265Z,101702.00
2022-11-02T19:38:56.087Z,101712.00
2022-11-02T19:41:23.884Z,101689.00
2022-11-02T19:43:51.246Z,101687.00
2022-11-02T19:46:21.876Z,101696.00
2022-11-02T19:48:49.689Z,101693.00
2022-11-02T19:51:29.026Z,101698.00
2022-11-02T19:54:01.254Z,101704.00
2022-11-02T19:56:32.831Z,101703.00
2022-11-02T19:59:00.179Z,101699.00
2022-11-02T20:01:33.673Z,101704.00
2022-11-02T20:04:01.378Z,101703.00
2022-11-02T20:06:38.011Z,101703.00
2022-11-02T20:09:08.024Z,101705.00
2022-11-02T20:11:36.529Z,101709.00
2022-11-02T20:14:05.206Z,101712.00
2022-11-02T20:16:32.106Z,101721.00
2022-11-02T20:18:59.524Z,101722.00
2022-11-02T20:21:34.589Z,101712.00
2022-11-02T20:24:05.724Z,101723.00
2022-11-02T20:26:38.780Z,101724.00
2022-11-02T20:29:06.997Z,101722.00
2022-11-02T20:31:38.814Z,101723.00
2022-11-02T20:34:08.359Z,101715.00
2022-11-02T20:36:35.715Z,101726.00
2022-11-02T20:39:05.010Z,101720.00
2022-11-02T20:41:32.240Z,101722.00
2022-11-02T20:43:58.973Z,101732.00
2022-11-02T20:46:37.544Z,101731.00
2022-11-02T20:49:21.136Z,101727.00
2022-11-02T20:51:53.294Z,101739.00
2022-11-02T20:54:22.130Z,101734.00
2022-11-02T20:56:50.318Z,101738.00
2022-11-02T20:59:17.768Z,101736.00
2022-11-02T21:01:44.823Z,101746.00
2022-11-02T21:04:16.888Z,101732.00
2022-11-02T21:06:47.338Z,101737.00
2022-11-02T21:09:14.049Z,101737.00
2022-11-02T21:11:59.260Z,101732.00
2022-11-02T21:14:26.036Z,101735.00
2022-11-02T21:16:52.775Z,101747.00
2022-11-02T21:19:20.166Z,101738.00
2022-11-02T21:21:46.935Z,101741.00
2022-11-02T21:24:14.028Z,101739.00
2022-11-02T21:26:40.840Z,101744.00
2022-11-02T21:29:09.155Z,101751.00
2022-11-02T21:31:36.059Z,101751.00
2022-11-02T21:34:02.881Z,101735.00
2022-11-02T21:36:30.330Z,101744.00
2022-11-02T21:38:58.632Z,101741.00
2022-11-02T21:41:28.622Z,101743.00
2022-11-02T21:43:55.870Z,101749.00
2022-11-02T21:46:25.579Z,101754.00
2022-11-02T21:48:52.729Z,101734.00
2022-11-02T21:51:21.596Z,101728.00
2022-11-02T21:53:50.408Z,101737.00
2022-11-02T21:56:20.946Z,101747.00
2022-11-02T21:58:49.096Z,101746.00
2022-11-02T22:01:40.945Z,101737.00
2022-11-02T22:04:09.210Z,101739.00
2022-11-02T22:06:37.743Z,101738.00
2022-11-02T22:09:08.191Z,101743.00
2022-11-02T22:11:35.461Z,101735.00
2022-11-02T22:14:02.612Z,101730.00
2022-11-02T22:16:35.829Z,101731.00
2022-11-02T22:19:06.530Z,101724.00
2022-11-02T22:21:38.293Z,101723.00
2022-11-02T22:24:06.266Z,101723.00
2022-11-02T22:26:35.164Z,101722.00
2022-11-02T22:29:02.542Z,101717.00
2022-11-02T22:31:39.011Z,101717.00
2022-11-02T22:34:08.573Z,101732.00
2022-11-02T22:36:36.999Z,101733.00
2022-11-02T22:39:08.591Z,101727.00
2022-11-02T22:41:44.630Z,101715.00
2022-11-02T22:44:18.637Z,101714.00
2022-11-02T22:46:48.243Z,101718.00
2022-11-02T22:49:17.870Z,101711.00
2022-11-02T22:51:48.047Z,101717.00
2022-11-02T22:54:17.923Z,101716.00
2022-11-02T22:56:47.032Z,101709.00
2022-11-02T22:59:15.004Z,101713.00
2022-11-02T23:01:42.191Z,101716.00
2022-11-02T23:04:11.709Z,101714.00
2022-11-02T23:06:38.689Z,101708.00
2022-11-02T23:09:05.702Z,101721.00
2022-11-02T23:11:36.644Z,101700.00
2022-11-02T23:14:07.909Z,101717.00
2022-11-02T23:16:47.258Z,101711.00
2022-11-02T23:19:30.896Z,101714.00
2022-11-02T23:22:29.689Z,101711.00
2022-11-02T23:25:12.452Z,101716.00
2022-11-02T23:28:04.808Z,101708.00
2022-11-02T23:30:55.805Z,101701.00
2022-11-02T23:33:28.793Z,101707.00
2022-11-02T23:36:15.551Z,101702.00
2022-11-02T23:39:03.987Z,101700.00
2022-11-02T23:41:33.422Z,101693.00
2022-11-02T23:44:13.883Z,101698.00
2022-11-02T23:46:43.120Z,101702.00
2022-11-02T23:49:10.766Z,101696.00
2022-11-02T23:51:56.250Z,101686.00
2022-11-02T23:54:41.410Z,101692.00
2022-11-02T23:57:08.173Z,101692.00
2022-11-02T23:59:34.876Z,101701.00
